Aviation Digital Data Service (ADDS)

Output produced by METARs form (1632 UTC 16 June 2019)
found at http://www.aviationweather.gov/metar/data/
 
TAF MWCB 161100Z 1612/1712 12010KT 9999 SCT018 
     PROB30 
     TEMPO 1615/1619 9000 SHRA SCT016 SCT040 
     PROB30 
     TEMPO 1704/1708 9000 SHRA SCT016 SCT040
       
TAF MWCR 161100Z 1612/1712 12010KT 9999 SCT018 
     PROB30 
     TEMPO 1615/1618 9000 SHRA SCT016 SCT040 
     PROB30 
     TEMPO 1622/1709 9000 SHRA SCT016 SCT040